createdAt,value
2023-02-15T00:01:12.360Z,49.30
2023-02-15T00:03:42.552Z,48.42
2023-02-15T00:06:12.029Z,48.75
2023-02-15T00:08:42.387Z,41.10
2023-02-15T00:11:38.329Z,49.08
2023-02-15T00:14:18.071Z,49.88
2023-02-15T00:16:52.026Z,53.10
2023-02-15T00:19:22.719Z,52.55
2023-02-15T00:21:50.966Z,49.92
2023-02-15T00:24:21.134Z,49.25
2023-02-15T00:26:51.544Z,53.05
2023-02-15T00:29:21.941Z,47.13
2023-02-15T00:31:53.304Z,50.70
2023-02-15T00:34:28.252Z,56.33
2023-02-15T00:37:01.174Z,51.47
2023-02-15T00:39:31.242Z,56.22
2023-02-15T00:42:01.322Z,50.60
2023-02-15T00:44:31.374Z,53.58
2023-02-15T00:47:01.428Z,53.10
2023-02-15T00:49:31.548Z,52.55
2023-02-15T00:52:01.654Z,45.88
2023-02-15T00:54:31.798Z,40.40
2023-02-15T00:57:02.345Z,42.35
2023-02-15T00:59:32.363Z,53.38
2023-02-15T01:02:02.654Z,51.67
2023-02-15T01:04:32.824Z,49.83
2023-02-15T01:07:04.639Z,50.65
2023-02-15T01:09:34.713Z,52.53
2023-02-15T01:12:05.720Z,56.25
2023-02-15T01:14:36.046Z,55.33
2023-02-15T01:17:06.264Z,57.40
2023-02-15T01:19:36.288Z,52.53
2023-02-15T01:22:06.624Z,54.40
2023-02-15T01:24:34.777Z,59.05
2023-02-15T01:27:03.178Z,55.22
2023-02-15T01:29:31.669Z,49.30
2023-02-15T01:32:00.220Z,49.53
2023-02-15T01:34:31.563Z,58.80
2023-02-15T01:37:01.998Z,55.65
2023-02-15T01:39:32.020Z,49.55
2023-02-15T01:42:02.031Z,57.67
2023-02-15T01:45:00.033Z,50.00
2023-02-15T01:47:53.643Z,52.38
2023-02-15T01:50:56.845Z,57.67
2023-02-15T01:53:43.937Z,57.65
2023-02-15T01:56:25.910Z,58.95
2023-02-15T01:59:09.202Z,54.03
2023-02-15T02:01:36.955Z,57.60
2023-02-15T02:04:26.671Z,58.20
2023-02-15T02:07:01.097Z,53.72
2023-02-15T02:09:31.780Z,62.22
2023-02-15T02:12:03.360Z,53.40
2023-02-15T02:14:34.118Z,55.22
2023-02-15T02:17:47.577Z,53.58
2023-02-15T02:21:32.593Z,62.72
2023-02-15T02:25:04.149Z,54.53
2023-02-15T02:27:41.022Z,64.75
2023-02-15T02:30:33.441Z,54.75
2023-02-15T02:33:34.343Z,61.72
2023-02-15T02:36:47.268Z,64.10
2023-02-15T02:40:10.235Z,61.70
2023-02-15T02:43:01.322Z,73.93
2023-02-15T02:45:47.695Z,82.93
2023-02-15T02:48:26.387Z,90.90
2023-02-15T02:50:55.739Z,97.82
2023-02-15T02:53:31.374Z,97.05
2023-02-15T02:56:38.777Z,97.78
2023-02-15T02:59:25.591Z,92.65
2023-02-15T03:02:15.173Z,105.22
2023-02-15T03:04:59.617Z,100.32
2023-02-15T03:07:34.148Z,100.22
2023-02-15T03:10:10.617Z,88.40
2023-02-15T03:12:42.759Z,101.57
2023-02-15T03:15:50.661Z,94.28
2023-02-15T03:18:34.941Z,108.78
2023-02-15T03:21:23.083Z,99.22
2023-02-15T03:24:11.904Z,107.13
2023-02-15T03:26:49.159Z,101.40
2023-02-15T03:29:28.488Z,99.35
2023-02-15T03:32:08.129Z,97.88
2023-02-15T03:34:38.893Z,105.03
2023-02-15T03:37:40.235Z,94.28
2023-02-15T03:40:51.184Z,100.22
2023-02-15T03:44:16.144Z,97.20
2023-02-15T03:47:18.316Z,104.72
2023-02-15T03:50:31.644Z,104.85
2023-02-15T03:53:10.864Z,104.82
2023-02-15T03:55:41.198Z,100.68
2023-02-15T03:58:29.898Z,104.93
2023-02-15T04:01:42.558Z,100.72
2023-02-15T04:04:25.614Z,96.63
2023-02-15T04:06:55.774Z,99.00
2023-02-15T04:09:44.563Z,105.40
2023-02-15T04:12:19.393Z,113.03
2023-02-15T04:15:08.360Z,104.22
2023-02-15T04:17:39.532Z,90.30
2023-02-15T04:20:28.845Z,97.00
2023-02-15T04:23:17.562Z,87.95
2023-02-15T04:25:47.436Z,98.63
2023-02-15T04:28:17.180Z,103.78
2023-02-15T04:30:48.086Z,99.35
2023-02-15T04:33:18.158Z,95.15
2023-02-15T04:35:47.845Z,106.80
2023-02-15T04:38:17.680Z,99.28
2023-02-15T04:40:52.191Z,97.97
2023-02-15T04:43:21.127Z,98.35
2023-02-15T04:45:51.673Z,87.75
2023-02-15T04:48:21.858Z,94.13
2023-02-15T04:50:51.486Z,87.88
2023-02-15T04:53:21.252Z,91.07
2023-02-15T04:55:51.294Z,92.45
2023-02-15T04:58:21.298Z,97.07
2023-02-15T05:00:51.203Z,95.25
2023-02-15T05:03:19.769Z,101.55
2023-02-15T05:05:48.198Z,110.80
2023-02-15T05:08:16.708Z,105.97
2023-02-15T05:10:45.078Z,98.18
2023-02-15T05:13:13.617Z,113.88
2023-02-15T05:15:44.637Z,114.80
2023-02-15T05:18:13.521Z,109.43
2023-02-15T05:20:42.103Z,113.32
2023-02-15T05:23:10.855Z,104.18
2023-02-15T05:25:58.087Z,150.68
2023-02-15T05:28:29.075Z,115.57
2023-02-15T05:31:18.897Z,192.43
2023-02-15T05:33:48.435Z,125.95
2023-02-15T05:36:15.749Z,125.90
2023-02-15T05:38:45.689Z,148.32
2023-02-15T05:41:15.737Z,114.05
2023-02-15T05:43:45.600Z,126.88
2023-02-15T05:46:15.354Z,123.05
2023-02-15T05:48:45.196Z,170.63
2023-02-15T05:51:16.903Z,140.52
2023-02-15T05:53:46.239Z,123.78
2023-02-15T05:56:15.935Z,187.52
2023-02-15T05:58:45.641Z,122.55
2023-02-15T06:01:20.131Z,145.27
2023-02-15T06:03:50.071Z,156.13
2023-02-15T06:06:18.632Z,150.73
2023-02-15T06:08:46.773Z,134.45
2023-02-15T06:11:15.218Z,142.40
2023-02-15T06:13:44.534Z,152.40
2023-02-15T06:16:12.124Z,136.88
2023-02-15T06:18:40.699Z,110.07
2023-02-15T06:21:08.833Z,126.90
2023-02-15T06:23:37.280Z,128.45
2023-02-15T06:26:05.725Z,146.68
2023-02-15T06:28:34.159Z,142.38
2023-02-15T06:31:02.563Z,111.72
2023-02-15T06:33:34.995Z,111.93
2023-02-15T06:36:05.833Z,114.43
2023-02-15T06:38:35.896Z,119.13
2023-02-15T06:41:06.228Z,118.40
2023-02-15T06:43:36.334Z,84.32
2023-02-15T06:46:06.412Z,100.13
2023-02-15T06:48:36.658Z,109.15
2023-02-15T06:51:06.799Z,113.18
2023-02-15T06:53:37.078Z,90.95
2023-02-15T06:56:10.205Z,107.30
2023-02-15T06:58:42.761Z,107.78
2023-02-15T07:01:13.402Z,79.80
2023-02-15T07:03:43.445Z,91.85
2023-02-15T07:06:13.763Z,114.00
2023-02-15T07:08:43.872Z,111.32
2023-02-15T07:11:32.370Z,110.05
2023-02-15T07:14:02.473Z,92.95
2023-02-15T07:16:32.539Z,111.90
2023-02-15T07:19:03.039Z,98.75
2023-02-15T07:21:33.060Z,96.32
2023-02-15T07:24:02.520Z,94.15
2023-02-15T07:26:33.968Z,80.15
2023-02-15T07:29:01.357Z,91.25
2023-02-15T07:31:29.839Z,72.40
2023-02-15T07:33:57.969Z,85.68
2023-02-15T07:36:26.417Z,117.00
2023-02-15T07:38:54.838Z,86.28
2023-02-15T07:41:24.633Z,85.82
2023-02-15T07:43:51.735Z,94.18
2023-02-15T07:46:21.912Z,74.78
2023-02-15T07:48:50.694Z,79.28
2023-02-15T07:51:19.075Z,85.63
2023-02-15T07:53:48.257Z,90.65
2023-02-15T07:56:16.708Z,97.05
2023-02-15T07:58:53.771Z,91.72
2023-02-15T08:01:37.217Z,96.30
2023-02-15T08:04:08.874Z,93.60
2023-02-15T08:06:38.503Z,120.35
2023-02-15T08:09:11.473Z,134.10
2023-02-15T08:11:43.843Z,117.88
2023-02-15T08:14:21.502Z,108.63
2023-02-15T08:16:58.530Z,93.72
2023-02-15T08:19:32.867Z,91.47
2023-02-15T08:22:07.336Z,104.35
2023-02-15T08:24:38.348Z,84.18
2023-02-15T08:27:10.437Z,97.68
2023-02-15T08:29:42.240Z,103.18
2023-02-15T08:32:13.874Z,84.68
2023-02-15T08:34:43.242Z,83.28
2023-02-15T08:37:11.876Z,82.32
2023-02-15T08:42:14.122Z,93.55
2023-02-15T08:44:41.200Z,77.70
2023-02-15T08:47:10.907Z,98.50
2023-02-15T08:49:40.705Z,83.82
2023-02-15T08:52:10.482Z,78.45
2023-02-15T08:54:40.323Z,87.70
2023-02-15T08:57:11.382Z,109.32
2023-02-15T08:59:40.710Z,97.25
2023-02-15T09:02:12.338Z,74.95
2023-02-15T09:04:41.647Z,91.63
2023-02-15T09:07:11.390Z,87.43
2023-02-15T09:09:41.088Z,87.85
2023-02-15T09:12:18.405Z,109.43
2023-02-15T09:14:45.790Z,84.38
2023-02-15T09:17:15.915Z,77.55
2023-02-15T09:19:43.239Z,81.63
2023-02-15T09:22:12.879Z,89.13
2023-02-15T09:24:42.721Z,94.70
2023-02-15T09:27:12.688Z,83.03
2023-02-15T09:29:42.427Z,78.55
2023-02-15T09:32:16.493Z,79.45
2023-02-15T09:34:44.665Z,78.97
2023-02-15T09:37:14.632Z,79.20
2023-02-15T09:39:45.339Z,83.97
2023-02-15T09:42:37.494Z,78.97
2023-02-15T09:45:19.084Z,77.55
2023-02-15T09:48:22.442Z,80.95
2023-02-15T09:51:37.812Z,80.38
2023-02-15T09:54:47.764Z,79.55
2023-02-15T09:58:19.714Z,72.72
2023-02-15T10:04:16.612Z,71.80
2023-02-15T10:07:36.639Z,70.88
2023-02-15T10:10:46.101Z,72.57
2023-02-15T10:13:55.474Z,82.22
2023-02-15T10:17:09.255Z,71.00
2023-02-15T10:20:23.917Z,67.43
2023-02-15T10:23:23.733Z,77.03
2023-02-15T10:26:22.157Z,64.50
2023-02-15T10:28:56.459Z,68.13
2023-02-15T10:32:30.448Z,74.72
2023-02-15T10:35:08.429Z,66.15
2023-02-15T10:38:03.640Z,66.85
2023-02-15T10:41:05.155Z,69.40
2023-02-15T10:44:29.412Z,65.90
2023-02-15T10:48:13.429Z,68.88
2023-02-15T10:50:59.141Z,64.13
2023-02-15T10:53:59.570Z,63.10
2023-02-15T10:57:10.908Z,66.38
2023-02-15T11:00:30.064Z,55.20
2023-02-15T11:03:41.797Z,65.45
2023-02-15T11:06:23.361Z,59.72
2023-02-15T11:09:05.907Z,59.97
2023-02-15T11:11:49.041Z,59.00
2023-02-15T11:14:55.217Z,59.97
2023-02-15T11:17:44.505Z,56.47
2023-02-15T11:20:40.059Z,58.47
2023-02-15T11:23:19.330Z,65.70
2023-02-15T11:26:05.874Z,65.82
2023-02-15T11:28:56.173Z,56.17
2023-02-15T11:34:33.255Z,63.17
2023-02-15T11:37:19.247Z,54.20
2023-02-15T11:39:55.724Z,58.00
2023-02-15T11:42:30.458Z,54.45
2023-02-15T11:45:29.892Z,56.58
2023-02-15T11:48:09.764Z,51.38
2023-02-15T11:50:41.957Z,59.65
2023-02-15T11:53:22.545Z,55.30
2023-02-15T11:55:52.692Z,48.58
2023-02-15T11:59:25.931Z,56.55
2023-02-15T12:01:56.080Z,48.30
2023-02-15T12:04:45.326Z,55.67
2023-02-15T12:07:27.502Z,51.47
2023-02-15T12:10:41.162Z,48.42
2023-02-15T12:13:21.251Z,45.97
2023-02-15T12:16:06.981Z,48.63
2023-02-15T12:18:48.022Z,49.35
2023-02-15T12:21:43.370Z,49.95
2023-02-15T12:24:33.488Z,49.25
2023-02-15T12:27:31.517Z,50.35
2023-02-15T12:30:22.736Z,45.85
2023-02-15T12:33:37.199Z,49.25
2023-02-15T12:36:46.773Z,38.38
2023-02-15T12:39:23.238Z,36.65
2023-02-15T12:41:57.058Z,37.92
2023-02-15T12:44:35.336Z,38.95
2023-02-15T12:47:17.307Z,42.83
2023-02-15T12:50:18.286Z,41.20
2023-02-15T12:53:06.398Z,41.40
2023-02-15T12:55:37.608Z,32.65
2023-02-15T12:58:31.889Z,30.55
2023-02-15T13:01:11.936Z,35.13
2023-02-15T13:04:02.384Z,30.08
2023-02-15T13:06:36.845Z,31.83
2023-02-15T13:09:24.743Z,28.42
2023-02-15T13:11:54.158Z,27.13
2023-02-15T13:14:33.605Z,27.23
2023-02-15T13:17:08.704Z,28.15
2023-02-15T13:19:49.011Z,29.48
2023-02-15T13:22:34.263Z,45.58
2023-02-15T13:25:22.494Z,34.17
2023-02-15T13:28:04.353Z,36.60
2023-02-15T13:30:45.451Z,60.03
2023-02-15T13:33:39.177Z,35.03
2023-02-15T13:37:05.091Z,31.75
2023-02-15T13:40:07.896Z,33.45
2023-02-15T13:42:52.176Z,27.48
2023-02-15T13:46:13.024Z,26.23
2023-02-15T13:49:19.836Z,29.27
2023-02-15T13:52:29.490Z,25.48
2023-02-15T13:55:56.292Z,27.23
2023-02-15T13:59:23.930Z,25.77
2023-02-15T14:02:12.700Z,25.55
2023-02-15T14:05:02.646Z,26.60
2023-02-15T14:08:01.800Z,27.10
2023-02-15T14:11:34.622Z,26.13
2023-02-15T14:14:47.624Z,22.67
2023-02-15T14:18:38.912Z,24.38
2023-02-15T14:21:39.886Z,25.00
2023-02-15T14:24:45.584Z,22.55
2023-02-15T14:27:46.977Z,24.70
2023-02-15T14:30:42.335Z,23.58
2023-02-15T14:33:55.715Z,22.92
2023-02-15T14:36:31.323Z,22.05
2023-02-15T14:40:14.821Z,19.58
2023-02-15T14:43:16.605Z,21.00
2023-02-15T14:46:22.409Z,16.08
2023-02-15T14:49:04.793Z,15.25
2023-02-15T14:51:44.107Z,14.82
2023-02-15T14:54:22.633Z,15.50
2023-02-15T14:57:04.466Z,12.00
2023-02-15T14:59:58.493Z,12.60
2023-02-15T15:02:53.626Z,15.35
2023-02-15T15:05:50.134Z,17.27
2023-02-15T15:08:37.383Z,13.02
2023-02-15T15:11:50.364Z,13.52
2023-02-15T15:14:35.302Z,13.23
2023-02-15T15:17:12.404Z,16.48
2023-02-15T15:19:52.036Z,15.65
2023-02-15T15:22:31.217Z,12.93
2023-02-15T15:25:33.516Z,13.77
2023-02-15T15:28:04.579Z,11.70
2023-02-15T15:30:34.503Z,15.40
2023-02-15T15:34:10.891Z,15.23
2023-02-15T15:37:30.755Z,11.95
2023-02-15T15:40:40.685Z,12.70
2023-02-15T15:44:06.844Z,13.88
2023-02-15T15:47:06.924Z,15.02
2023-02-15T15:49:41.327Z,14.15
2023-02-15T15:52:20.916Z,10.65
2023-02-15T15:55:16.798Z,13.23
2023-02-15T15:57:54.468Z,11.27
2023-02-15T16:00:43.626Z,12.67
2023-02-15T16:03:28.934Z,13.93
2023-02-15T16:06:01.399Z,14.85
2023-02-15T16:08:39.585Z,11.20
2023-02-15T16:11:32.177Z,12.52
2023-02-15T16:14:01.053Z,12.30
2023-02-15T16:16:31.981Z,14.35
2023-02-15T16:19:00.922Z,14.90
2023-02-15T16:21:38.627Z,13.00
2023-02-15T16:24:38.977Z,11.82
2023-02-15T16:27:41.889Z,14.27
2023-02-15T16:30:28.035Z,18.20
2023-02-15T16:33:17.043Z,19.55
2023-02-15T16:36:04.259Z,14.68
2023-02-15T16:38:43.395Z,18.05
2023-02-15T16:41:22.925Z,17.05
2023-02-15T16:43:59.223Z,15.93
2023-02-15T16:46:43.081Z,19.00
2023-02-15T16:49:27.199Z,15.93
2023-02-15T16:52:08.108Z,17.83
2023-02-15T16:54:38.517Z,19.77
2023-02-15T16:57:29.664Z,16.85
2023-02-15T17:00:21.685Z,19.08
2023-02-15T17:03:28.269Z,18.17
2023-02-15T17:06:02.621Z,17.25
2023-02-15T17:08:45.745Z,15.07
2023-02-15T17:11:20.109Z,13.63
2023-02-15T17:14:05.806Z,15.43
2023-02-15T17:16:59.377Z,14.00
2023-02-15T17:19:42.568Z,11.27
2023-02-15T17:22:31.914Z,15.02
2023-02-15T17:25:05.541Z,12.52
2023-02-15T17:27:36.018Z,11.30
2023-02-15T17:30:39.410Z,15.20
2023-02-15T17:33:33.879Z,15.63
2023-02-15T17:36:23.477Z,13.63
2023-02-15T17:38:59.741Z,16.17
2023-02-15T17:41:38.330Z,16.88
2023-02-15T17:46:44.784Z,15.88
2023-02-15T17:49:34.895Z,15.15
2023-02-15T17:52:05.376Z,15.75
2023-02-15T17:54:54.124Z,20.35
2023-02-15T17:57:24.166Z,15.52
2023-02-15T18:00:12.843Z,23.08
2023-02-15T18:03:02.842Z,18.25
2023-02-15T18:05:51.720Z,19.63
2023-02-15T18:08:46.890Z,17.02
2023-02-15T18:11:35.697Z,18.27
2023-02-15T18:14:10.405Z,19.75
2023-02-15T18:16:45.836Z,20.30
2023-02-15T18:19:27.278Z,21.23
2023-02-15T18:21:57.838Z,20.50
2023-02-15T18:24:27.559Z,21.88
2023-02-15T18:26:55.987Z,22.30
2023-02-15T18:29:24.320Z,19.50
2023-02-15T18:31:58.206Z,23.90
2023-02-15T18:34:39.737Z,20.85
2023-02-15T18:37:33.673Z,22.05
2023-02-15T18:40:04.393Z,18.60
2023-02-15T18:42:36.274Z,19.33
2023-02-15T18:45:32.987Z,24.58
2023-02-15T18:48:03.517Z,23.55
2023-02-15T18:50:36.823Z,22.50
2023-02-15T18:53:20.548Z,29.08
2023-02-15T18:55:49.736Z,23.63
2023-02-15T18:58:24.746Z,25.50
2023-02-15T19:00:55.097Z,24.10
2023-02-15T19:03:25.162Z,25.23
2023-02-15T19:05:55.093Z,29.95
2023-02-15T19:08:24.901Z,33.63
2023-02-15T19:10:55.595Z,29.70
2023-02-15T19:13:25.630Z,30.42
2023-02-15T19:15:55.823Z,27.95
2023-02-15T19:18:26.489Z,26.95
2023-02-15T19:20:56.592Z,29.50
2023-02-15T19:23:27.012Z,28.38
2023-02-15T19:25:57.155Z,30.02
2023-02-15T19:28:34.643Z,24.67
2023-02-15T19:31:04.227Z,21.42
2023-02-15T19:33:34.821Z,18.17
2023-02-15T19:36:17.510Z,18.63
2023-02-15T19:38:54.607Z,17.67
2023-02-15T19:41:34.460Z,15.68
2023-02-15T19:44:04.038Z,19.67
2023-02-15T19:46:31.759Z,20.75
2023-02-15T19:49:00.152Z,20.77
2023-02-15T19:51:28.532Z,20.08
2023-02-15T19:53:57.856Z,21.58
2023-02-15T19:56:27.038Z,23.35
2023-02-15T19:58:57.827Z,21.38
2023-02-15T20:01:25.588Z,22.30
2023-02-15T20:03:54.623Z,22.85
2023-02-15T20:06:22.048Z,21.45
2023-02-15T20:08:51.139Z,22.75
2023-02-15T20:11:18.742Z,24.10
2023-02-15T20:13:47.119Z,25.58
2023-02-15T20:16:15.661Z,23.23
2023-02-15T20:18:46.517Z,29.70
2023-02-15T20:21:19.705Z,28.75
2023-02-15T20:23:48.822Z,24.70
2023-02-15T20:26:29.781Z,26.15
2023-02-15T20:29:00.853Z,29.42
2023-02-15T20:31:31.068Z,26.10
2023-02-15T20:34:01.364Z,32.45
2023-02-15T20:36:31.821Z,28.95
2023-02-15T20:39:17.492Z,30.67
2023-02-15T20:41:48.003Z,27.63
2023-02-15T20:44:31.893Z,31.35
2023-02-15T20:47:02.806Z,30.23
2023-02-15T20:49:32.532Z,25.45
2023-02-15T20:52:12.576Z,29.23
2023-02-15T20:54:42.762Z,26.95
2023-02-15T20:57:13.332Z,28.52
2023-02-15T20:59:42.457Z,28.95
2023-02-15T21:02:23.962Z,31.23
2023-02-15T21:04:55.527Z,32.45
2023-02-15T21:07:23.934Z,32.97
2023-02-15T21:09:54.340Z,26.65
2023-02-15T21:12:25.418Z,33.25
2023-02-15T21:14:55.207Z,29.02
2023-02-15T21:17:24.973Z,31.35
2023-02-15T21:19:54.799Z,25.90
2023-02-15T21:22:24.870Z,24.80
2023-02-15T21:24:55.167Z,28.58
2023-02-15T21:27:25.188Z,25.88
2023-02-15T21:29:53.722Z,29.38
2023-02-15T21:32:22.217Z,28.60
2023-02-15T21:34:50.596Z,25.98
2023-02-15T21:37:36.616Z,26.70
2023-02-15T21:40:07.091Z,22.00
2023-02-15T21:42:55.585Z,26.52
2023-02-15T21:45:43.976Z,19.57
2023-02-15T21:48:14.632Z,26.65
2023-02-15T21:51:03.208Z,29.10
2023-02-15T21:53:42.640Z,24.70
2023-02-15T21:56:21.977Z,29.60
2023-02-15T21:58:50.267Z,30.95
2023-02-15T22:01:28.530Z,28.00
2023-02-15T22:03:59.756Z,29.05
2023-02-15T22:06:29.487Z,28.52
2023-02-15T22:08:59.257Z,27.33
2023-02-15T22:11:30.116Z,29.85
2023-02-15T22:14:00.266Z,27.08
2023-02-15T22:16:31.031Z,30.85
2023-02-15T22:19:00.791Z,28.83
2023-02-15T22:21:31.508Z,25.73
2023-02-15T22:24:01.508Z,25.23
2023-02-15T22:26:31.319Z,24.60
2023-02-15T22:29:01.012Z,28.30
2023-02-15T22:31:30.944Z,28.63
2023-02-15T22:34:01.103Z,25.25
2023-02-15T22:36:31.272Z,24.83
2023-02-15T22:39:01.296Z,25.35
2023-02-15T22:41:31.923Z,25.08
2023-02-15T22:44:00.285Z,24.50
2023-02-15T22:46:30.112Z,22.35
2023-02-15T22:48:57.310Z,28.35
2023-02-15T22:51:27.079Z,26.13
2023-02-15T22:53:55.682Z,23.65
2023-02-15T22:56:49.012Z,26.05
2023-02-15T22:59:30.059Z,20.30
2023-02-15T23:01:58.830Z,22.48
2023-02-15T23:04:29.990Z,22.60
2023-02-15T23:07:01.030Z,25.63
2023-02-15T23:09:31.066Z,21.70
2023-02-15T23:12:00.751Z,25.40
2023-02-15T23:14:36.805Z,26.15
2023-02-15T23:17:06.804Z,25.25
2023-02-15T23:19:36.750Z,21.48
2023-02-15T23:22:18.352Z,25.60
2023-02-15T23:24:53.521Z,22.85
2023-02-15T23:27:41.319Z,25.83
2023-02-15T23:30:16.443Z,29.75
2023-02-15T23:32:45.482Z,24.50
2023-02-15T23:35:20.057Z,25.10
2023-02-15T23:37:48.947Z,23.98
2023-02-15T23:40:40.508Z,28.55
2023-02-15T23:43:22.771Z,25.27
2023-02-15T23:45:52.758Z,24.67
2023-02-15T23:48:38.546Z,21.83
2023-02-15T23:51:11.436Z,20.30
2023-02-15T23:53:39.916Z,21.65
2023-02-15T23:56:14.693Z,26.15
2023-02-15T23:58:47.235Z,27.10
